sensor_id;sensor_type;location;lat;lon;timestamp;P1;durP1;ratioP1;P2;durP2;ratioP2
18378;SDS011;27025;51.986;5.984;2023-06-10T00:01:59;8.25;;;7.18;;
18378;SDS011;27025;51.986;5.984;2023-06-10T00:04:26;8.57;;;7.70;;
18378;SDS011;27025;51.986;5.984;2023-06-10T00:06:52;8.25;;;7.45;;
18378;SDS011;27025;51.986;5.984;2023-06-10T00:09:19;8.18;;;7.45;;
18378;SDS011;27025;51.986;5.984;2023-06-10T00:11:46;8.03;;;7.27;;
18378;SDS011;27025;51.986;5.984;2023-06-10T00:14:14;7.95;;;7.10;;
18378;SDS011;27025;51.986;5.984;2023-06-10T00:16:40;8.27;;;7.43;;
18378;SDS011;27025;51.986;5.984;2023-06-10T00:19:12;7.53;;;6.82;;
18378;SDS011;27025;51.986;5.984;2023-06-10T00:21:39;9.40;;;7.35;;
18378;SDS011;27025;51.986;5.984;2023-06-10T00:24:08;7.80;;;6.68;;
18378;SDS011;27025;51.986;5.984;2023-06-10T00:26:37;10.68;;;7.10;;
18378;SDS011;27025;51.986;5.984;2023-06-10T00:29:03;9.57;;;7.10;;
18378;SDS011;27025;51.986;5.984;2023-06-10T00:31:29;9.90;;;7.07;;
18378;SDS011;27025;51.986;5.984;2023-06-10T00:33:58;9.67;;;7.47;;
18378;SDS011;27025;51.986;5.984;2023-06-10T00:36:24;8.38;;;6.75;;
18378;SDS011;27025;51.986;5.984;2023-06-10T00:38:50;9.50;;;7.45;;
18378;SDS011;27025;51.986;5.984;2023-06-10T00:41:19;10.63;;;7.30;;
18378;SDS011;27025;51.986;5.984;2023-06-10T00:43:45;7.93;;;7.13;;
18378;SDS011;27025;51.986;5.984;2023-06-10T00:46:11;11.40;;;7.40;;
18378;SDS011;27025;51.986;5.984;2023-06-10T00:48:39;7.35;;;6.65;;
18378;SDS011;27025;51.986;5.984;2023-06-10T00:51:05;9.10;;;7.05;;
18378;SDS011;27025;51.986;5.984;2023-06-10T00:53:34;7.20;;;6.50;;
18378;SDS011;27025;51.986;5.984;2023-06-10T00:56:00;7.32;;;6.72;;
18378;SDS011;27025;51.986;5.984;2023-06-10T00:58:27;9.43;;;6.90;;
18378;SDS011;27025;51.986;5.984;2023-06-10T01:00:53;10.88;;;7.10;;
18378;SDS011;27025;51.986;5.984;2023-06-10T01:03:20;7.40;;;6.70;;
18378;SDS011;27025;51.986;5.984;2023-06-10T01:05:50;8.68;;;6.78;;
18378;SDS011;27025;51.986;5.984;2023-06-10T01:08:37;7.80;;;6.38;;
18378;SDS011;27025;51.986;5.984;2023-06-10T01:11:07;8.03;;;7.07;;
18378;SDS011;27025;51.986;5.984;2023-06-10T01:13:35;7.80;;;6.05;;
18378;SDS011;27025;51.986;5.984;2023-06-10T01:16:01;7.93;;;6.72;;
18378;SDS011;27025;51.986;5.984;2023-06-10T01:18:31;7.90;;;6.78;;
18378;SDS011;27025;51.986;5.984;2023-06-10T01:20:57;7.50;;;6.40;;
18378;SDS011;27025;51.986;5.984;2023-06-10T01:23:23;8.15;;;6.90;;
18378;SDS011;27025;51.986;5.984;2023-06-10T01:25:53;8.48;;;6.88;;
18378;SDS011;27025;51.986;5.984;2023-06-10T01:33:20;7.63;;;6.65;;
18378;SDS011;27025;51.986;5.984;2023-06-10T01:35:48;6.70;;;6.00;;
18378;SDS011;27025;51.986;5.984;2023-06-10T01:38:16;7.25;;;6.55;;
18378;SDS011;27025;51.986;5.984;2023-06-10T01:40:43;9.38;;;6.63;;
18378;SDS011;27025;51.986;5.984;2023-06-10T01:43:09;9.27;;;6.28;;
18378;SDS011;27025;51.986;5.984;2023-06-10T01:45:35;7.00;;;6.07;;
18378;SDS011;27025;51.986;5.984;2023-06-10T01:48:02;8.43;;;6.15;;
18378;SDS011;27025;51.986;5.984;2023-06-10T01:50:28;8.80;;;6.33;;
18378;SDS011;27025;51.986;5.984;2023-06-10T01:52:54;7.87;;;6.47;;
18378;SDS011;27025;51.986;5.984;2023-06-10T01:55:20;7.80;;;6.30;;
18378;SDS011;27025;51.986;5.984;2023-06-10T01:57:48;8.00;;;6.68;;
18378;SDS011;27025;51.986;5.984;2023-06-10T02:00:14;7.80;;;7.00;;
18378;SDS011;27025;51.986;5.984;2023-06-10T02:02:40;9.57;;;6.93;;
18378;SDS011;27025;51.986;5.984;2023-06-10T02:05:06;7.73;;;6.80;;
18378;SDS011;27025;51.986;5.984;2023-06-10T02:07:33;9.20;;;6.50;;
18378;SDS011;27025;51.986;5.984;2023-06-10T02:09:59;7.35;;;6.55;;
18378;SDS011;27025;51.986;5.984;2023-06-10T02:12:25;9.13;;;7.00;;
18378;SDS011;27025;51.986;5.984;2023-06-10T02:14:53;7.60;;;6.82;;
18378;SDS011;27025;51.986;5.984;2023-06-10T02:17:19;8.82;;;7.10;;
18378;SDS011;27025;51.986;5.984;2023-06-10T02:19:45;8.27;;;6.65;;
18378;SDS011;27025;51.986;5.984;2023-06-10T02:22:17;8.15;;;6.80;;
18378;SDS011;27025;51.986;5.984;2023-06-10T02:24:43;7.82;;;6.53;;
18378;SDS011;27025;51.986;5.984;2023-06-10T02:27:09;8.48;;;6.80;;
18378;SDS011;27025;51.986;5.984;2023-06-10T02:29:38;9.70;;;6.78;;
18378;SDS011;27025;51.986;5.984;2023-06-10T02:32:04;9.35;;;6.70;;
18378;SDS011;27025;51.986;5.984;2023-06-10T02:34:30;8.05;;;6.85;;
18378;SDS011;27025;51.986;5.984;2023-06-10T02:36:56;9.97;;;6.90;;
18378;SDS011;27025;51.986;5.984;2023-06-10T02:39:25;9.25;;;6.78;;
18378;SDS011;27025;51.986;5.984;2023-06-10T02:41:52;8.23;;;6.72;;
18378;SDS011;27025;51.986;5.984;2023-06-10T02:44:18;9.45;;;7.00;;
18378;SDS011;27025;51.986;5.984;2023-06-10T02:46:46;7.93;;;6.80;;
18378;SDS011;27025;51.986;5.984;2023-06-10T02:49:12;11.55;;;6.93;;
18378;SDS011;27025;51.986;5.984;2023-06-10T02:51:38;7.63;;;6.55;;
18378;SDS011;27025;51.986;5.984;2023-06-10T02:54:07;7.88;;;7.07;;
18378;SDS011;27025;51.986;5.984;2023-06-10T02:56:33;9.02;;;6.78;;
18378;SDS011;27025;51.986;5.984;2023-06-10T02:59:00;10.00;;;6.90;;
18378;SDS011;27025;51.986;5.984;2023-06-10T03:01:26;11.55;;;6.72;;
18378;SDS011;27025;51.986;5.984;2023-06-10T03:03:52;8.90;;;6.93;;
18378;SDS011;27025;51.986;5.984;2023-06-10T03:06:18;9.70;;;7.30;;
18378;SDS011;27025;51.986;5.984;2023-06-10T03:08:44;10.57;;;7.25;;
18378;SDS011;27025;51.986;5.984;2023-06-10T03:11:15;10.68;;;6.82;;
18378;SDS011;27025;51.986;5.984;2023-06-10T03:13:41;8.15;;;6.95;;
18378;SDS011;27025;51.986;5.984;2023-06-10T03:16:07;9.63;;;7.00;;
18378;SDS011;27025;51.986;5.984;2023-06-10T03:18:33;9.73;;;6.77;;
18378;SDS011;27025;51.986;5.984;2023-06-10T03:21:02;9.35;;;6.97;;
18378;SDS011;27025;51.986;5.984;2023-06-10T03:23:28;10.52;;;7.22;;
18378;SDS011;27025;51.986;5.984;2023-06-10T03:25:54;8.45;;;7.05;;
18378;SDS011;27025;51.986;5.984;2023-06-10T03:28:20;10.18;;;7.00;;
18378;SDS011;27025;51.986;5.984;2023-06-10T03:30:47;9.77;;;7.43;;
18378;SDS011;27025;51.986;5.984;2023-06-10T03:33:13;8.65;;;7.20;;
18378;SDS011;27025;51.986;5.984;2023-06-10T03:35:40;10.32;;;7.47;;
18378;SDS011;27025;51.986;5.984;2023-06-10T03:38:08;10.82;;;7.45;;
18378;SDS011;27025;51.986;5.984;2023-06-10T03:40:34;7.88;;;7.07;;
18378;SDS011;27025;51.986;5.984;2023-06-10T03:43:00;8.18;;;7.30;;
18378;SDS011;27025;51.986;5.984;2023-06-10T03:45:29;8.98;;;7.38;;
18378;SDS011;27025;51.986;5.984;2023-06-10T03:47:55;10.35;;;7.60;;
18378;SDS011;27025;51.986;5.984;2023-06-10T03:50:24;8.13;;;7.15;;
18378;SDS011;27025;51.986;5.984;2023-06-10T03:52:52;9.80;;;6.75;;
18378;SDS011;27025;51.986;5.984;2023-06-10T03:55:18;9.18;;;7.18;;
18378;SDS011;27025;51.986;5.984;2023-06-10T03:57:49;10.50;;;7.45;;
18378;SDS011;27025;51.986;5.984;2023-06-10T04:00:15;12.52;;;7.75;;
18378;SDS011;27025;51.986;5.984;2023-06-10T04:02:42;9.68;;;7.47;;
18378;SDS011;27025;51.986;5.984;2023-06-10T04:05:16;8.55;;;7.22;;
18378;SDS011;27025;51.986;5.984;2023-06-10T04:07:42;10.73;;;7.40;;
18378;SDS011;27025;51.986;5.984;2023-06-10T04:10:11;10.13;;;7.28;;
18378;SDS011;27025;51.986;5.984;2023-06-10T04:12:37;9.07;;;7.28;;
18378;SDS011;27025;51.986;5.984;2023-06-10T04:15:03;9.55;;;7.80;;
18378;SDS011;27025;51.986;5.984;2023-06-10T04:17:30;11.20;;;7.60;;
18378;SDS011;27025;51.986;5.984;2023-06-10T04:19:56;9.95;;;7.40;;
18378;SDS011;27025;51.986;5.984;2023-06-10T04:22:23;12.30;;;7.55;;
18378;SDS011;27025;51.986;5.984;2023-06-10T04:24:49;9.48;;;7.63;;
18378;SDS011;27025;51.986;5.984;2023-06-10T04:27:15;11.50;;;7.38;;
18378;SDS011;27025;51.986;5.984;2023-06-10T04:29:44;9.10;;;7.40;;
18378;SDS011;27025;51.986;5.984;2023-06-10T04:32:10;10.93;;;7.32;;
18378;SDS011;27025;51.986;5.984;2023-06-10T04:34:36;8.82;;;7.93;;
18378;SDS011;27025;51.986;5.984;2023-06-10T04:37:04;10.05;;;7.20;;
18378;SDS011;27025;51.986;5.984;2023-06-10T04:39:30;10.90;;;7.57;;
18378;SDS011;27025;51.986;5.984;2023-06-10T04:41:57;10.32;;;7.68;;
18378;SDS011;27025;51.986;5.984;2023-06-10T04:44:23;11.00;;;7.97;;
18378;SDS011;27025;51.986;5.984;2023-06-10T04:46:49;9.50;;;7.30;;
18378;SDS011;27025;51.986;5.984;2023-06-10T04:49:15;13.00;;;7.28;;
18378;SDS011;27025;51.986;5.984;2023-06-10T04:51:42;9.33;;;7.57;;
18378;SDS011;27025;51.986;5.984;2023-06-10T04:54:08;10.02;;;7.65;;
18378;SDS011;27025;51.986;5.984;2023-06-10T04:56:34;8.82;;;7.60;;
18378;SDS011;27025;51.986;5.984;2023-06-10T04:59:00;9.68;;;7.50;;
18378;SDS011;27025;51.986;5.984;2023-06-10T05:01:26;10.43;;;7.97;;
18378;SDS011;27025;51.986;5.984;2023-06-10T05:03:52;8.93;;;7.70;;
18378;SDS011;27025;51.986;5.984;2023-06-10T05:06:19;9.95;;;7.60;;
18378;SDS011;27025;51.986;5.984;2023-06-10T05:08:45;9.13;;;7.50;;
18378;SDS011;27025;51.986;5.984;2023-06-10T05:11:11;8.45;;;7.47;;
18378;SDS011;27025;51.986;5.984;2023-06-10T05:13:37;9.98;;;7.85;;
18378;SDS011;27025;51.986;5.984;2023-06-10T05:16:05;10.82;;;7.63;;
18378;SDS011;27025;51.986;5.984;2023-06-10T05:18:32;10.93;;;7.70;;
18378;SDS011;27025;51.986;5.984;2023-06-10T05:20:58;10.18;;;7.85;;
18378;SDS011;27025;51.986;5.984;2023-06-10T05:23:27;9.80;;;7.70;;
18378;SDS011;27025;51.986;5.984;2023-06-10T05:25:53;9.63;;;7.95;;
18378;SDS011;27025;51.986;5.984;2023-06-10T05:28:19;9.37;;;7.00;;
18378;SDS011;27025;51.986;5.984;2023-06-10T05:30:45;11.90;;;7.40;;
18378;SDS011;27025;51.986;5.984;2023-06-10T05:33:13;11.10;;;7.83;;
18378;SDS011;27025;51.986;5.984;2023-06-10T05:35:39;13.07;;;7.27;;
18378;SDS011;27025;51.986;5.984;2023-06-10T05:38:06;10.00;;;7.10;;
18378;SDS011;27025;51.986;5.984;2023-06-10T05:40:34;9.87;;;7.30;;
18378;SDS011;27025;51.986;5.984;2023-06-10T05:43:00;12.00;;;7.13;;
18378;SDS011;27025;51.986;5.984;2023-06-10T05:45:27;11.90;;;6.90;;
18378;SDS011;27025;51.986;5.984;2023-06-10T05:47:55;10.00;;;7.00;;
18378;SDS011;27025;51.986;5.984;2023-06-10T05:50:21;9.03;;;7.03;;
18378;SDS011;27025;51.986;5.984;2023-06-10T05:52:47;10.73;;;7.23;;
18378;SDS011;27025;51.986;5.984;2023-06-10T05:55:13;9.17;;;7.47;;
18378;SDS011;27025;51.986;5.984;2023-06-10T05:57:42;13.07;;;7.53;;
18378;SDS011;27025;51.986;5.984;2023-06-10T06:00:08;7.77;;;6.70;;
18378;SDS011;27025;51.986;5.984;2023-06-10T06:02:34;11.17;;;7.13;;
18378;SDS011;27025;51.986;5.984;2023-06-10T06:05:00;8.23;;;7.10;;
18378;SDS011;27025;51.986;5.984;2023-06-10T06:07:26;8.90;;;6.67;;
18378;SDS011;27025;51.986;5.984;2023-06-10T06:09:52;10.30;;;7.20;;
18378;SDS011;27025;51.986;5.984;2023-06-10T06:12:18;8.20;;;6.80;;
18378;SDS011;27025;51.986;5.984;2023-06-10T06:14:45;8.67;;;7.10;;
18378;SDS011;27025;51.986;5.984;2023-06-10T06:17:11;9.97;;;7.30;;
18378;SDS011;27025;51.986;5.984;2023-06-10T06:19:37;10.93;;;7.57;;
18378;SDS011;27025;51.986;5.984;2023-06-10T06:22:03;9.45;;;7.00;;
18378;SDS011;27025;51.986;5.984;2023-06-10T06:24:29;15.63;;;7.00;;
18378;SDS011;27025;51.986;5.984;2023-06-10T06:26:55;12.73;;;7.20;;
18378;SDS011;27025;51.986;5.984;2023-06-10T06:29:22;15.10;;;7.20;;
18378;SDS011;27025;51.986;5.984;2023-06-10T06:31:48;42.90;;;9.13;;
18378;SDS011;27025;51.986;5.984;2023-06-10T06:34:14;21.43;;;7.40;;
18378;SDS011;27025;51.986;5.984;2023-06-10T06:36:40;11.57;;;6.37;;
18378;SDS011;27025;51.986;5.984;2023-06-10T06:39:06;10.32;;;7.55;;
18378;SDS011;27025;51.986;5.984;2023-06-10T06:41:32;9.95;;;8.00;;
18378;SDS011;27025;51.986;5.984;2023-06-10T06:43:58;11.53;;;6.93;;
18378;SDS011;27025;51.986;5.984;2023-06-10T06:46:24;7.83;;;6.97;;
18378;SDS011;27025;51.986;5.984;2023-06-10T06:48:53;9.43;;;6.50;;
18378;SDS011;27025;51.986;5.984;2023-06-10T06:51:19;9.03;;;7.27;;
18378;SDS011;27025;51.986;5.984;2023-06-10T06:53:45;11.37;;;7.13;;
18378;SDS011;27025;51.986;5.984;2023-06-10T06:56:11;8.30;;;7.03;;
18378;SDS011;27025;51.986;5.984;2023-06-10T06:58:40;10.47;;;7.33;;
18378;SDS011;27025;51.986;5.984;2023-06-10T07:01:07;11.57;;;7.00;;
18378;SDS011;27025;51.986;5.984;2023-06-10T07:03:33;8.05;;;6.60;;
18378;SDS011;27025;51.986;5.984;2023-06-10T07:05:59;7.70;;;6.55;;
18378;SDS011;27025;51.986;5.984;2023-06-10T07:08:25;9.47;;;6.97;;
18378;SDS011;27025;51.986;5.984;2023-06-10T07:10:51;10.27;;;6.67;;
18378;SDS011;27025;51.986;5.984;2023-06-10T07:13:18;7.37;;;6.50;;
18378;SDS011;27025;51.986;5.984;2023-06-10T07:15:46;9.20;;;6.40;;
18378;SDS011;27025;51.986;5.984;2023-06-10T07:18:12;11.07;;;6.63;;
18378;SDS011;27025;51.986;5.984;2023-06-10T07:20:38;11.07;;;7.57;;
18378;SDS011;27025;51.986;5.984;2023-06-10T07:23:07;8.40;;;6.65;;
18378;SDS011;27025;51.986;5.984;2023-06-10T07:25:33;8.40;;;6.60;;
18378;SDS011;27025;51.986;5.984;2023-06-10T07:27:59;8.88;;;6.65;;
18378;SDS011;27025;51.986;5.984;2023-06-10T07:30:25;7.68;;;6.22;;
18378;SDS011;27025;51.986;5.984;2023-06-10T07:32:53;16.50;;;7.13;;
18378;SDS011;27025;51.986;5.984;2023-06-10T07:35:20;8.50;;;6.30;;
18378;SDS011;27025;51.986;5.984;2023-06-10T07:37:46;11.88;;;6.60;;
18378;SDS011;27025;51.986;5.984;2023-06-10T07:40:12;8.37;;;6.53;;
18378;SDS011;27025;51.986;5.984;2023-06-10T07:42:38;8.50;;;6.15;;
18378;SDS011;27025;51.986;5.984;2023-06-10T07:45:05;9.02;;;6.55;;
18378;SDS011;27025;51.986;5.984;2023-06-10T07:47:32;9.18;;;6.03;;
18378;SDS011;27025;51.986;5.984;2023-06-10T07:50:01;9.60;;;6.70;;
18378;SDS011;27025;51.986;5.984;2023-06-10T07:52:27;10.30;;;6.07;;
18378;SDS011;27025;51.986;5.984;2023-06-10T07:54:53;10.20;;;6.10;;
18378;SDS011;27025;51.986;5.984;2023-06-10T07:57:20;8.98;;;5.85;;
18378;SDS011;27025;51.986;5.984;2023-06-10T07:59:46;6.72;;;6.03;;
18378;SDS011;27025;51.986;5.984;2023-06-10T08:02:12;9.00;;;6.18;;
18378;SDS011;27025;51.986;5.984;2023-06-10T08:04:38;9.45;;;6.40;;
18378;SDS011;27025;51.986;5.984;2023-06-10T08:07:04;9.35;;;5.57;;
18378;SDS011;27025;51.986;5.984;2023-06-10T08:09:30;8.10;;;5.70;;
18378;SDS011;27025;51.986;5.984;2023-06-10T08:11:56;9.25;;;6.00;;
18378;SDS011;27025;51.986;5.984;2023-06-10T08:14:22;8.23;;;5.82;;
18378;SDS011;27025;51.986;5.984;2023-06-10T08:16:48;10.10;;;6.00;;
18378;SDS011;27025;51.986;5.984;2023-06-10T08:19:14;9.68;;;6.05;;
18378;SDS011;27025;51.986;5.984;2023-06-10T08:21:40;9.40;;;5.50;;
18378;SDS011;27025;51.986;5.984;2023-06-10T08:24:07;7.68;;;5.88;;
18378;SDS011;27025;51.986;5.984;2023-06-10T08:26:33;6.18;;;5.50;;
18378;SDS011;27025;51.986;5.984;2023-06-10T08:28:59;6.72;;;5.93;;
18378;SDS011;27025;51.986;5.984;2023-06-10T08:31:25;9.18;;;6.05;;
18378;SDS011;27025;51.986;5.984;2023-06-10T08:33:51;7.85;;;6.07;;
18378;SDS011;27025;51.986;5.984;2023-06-10T08:36:17;9.63;;;5.63;;
18378;SDS011;27025;51.986;5.984;2023-06-10T08:38:43;9.00;;;5.70;;
18378;SDS011;27025;51.986;5.984;2023-06-10T08:41:09;8.32;;;5.93;;
18378;SDS011;27025;51.986;5.984;2023-06-10T08:43:43;8.00;;;5.53;;
18378;SDS011;27025;51.986;5.984;2023-06-10T08:46:10;7.90;;;5.50;;
18378;SDS011;27025;51.986;5.984;2023-06-10T08:48:38;9.45;;;5.43;;
18378;SDS011;27025;51.986;5.984;2023-06-10T08:51:06;7.47;;;5.20;;
18378;SDS011;27025;51.986;5.984;2023-06-10T08:53:36;7.28;;;5.63;;
18378;SDS011;27025;51.986;5.984;2023-06-10T08:56:03;8.77;;;5.57;;
18378;SDS011;27025;51.986;5.984;2023-06-10T08:58:30;8.43;;;5.70;;
18378;SDS011;27025;51.986;5.984;2023-06-10T09:01:06;6.32;;;5.20;;
18378;SDS011;27025;51.986;5.984;2023-06-10T09:03:34;9.55;;;5.90;;
18378;SDS011;27025;51.986;5.984;2023-06-10T09:06:00;8.65;;;5.35;;
18378;SDS011;27025;51.986;5.984;2023-06-10T09:08:29;5.78;;;5.07;;
18378;SDS011;27025;51.986;5.984;2023-06-10T09:10:55;8.43;;;5.35;;
18378;SDS011;27025;51.986;5.984;2023-06-10T09:13:21;7.10;;;5.05;;
18378;SDS011;27025;51.986;5.984;2023-06-10T09:15:49;7.18;;;5.60;;
18378;SDS011;27025;51.986;5.984;2023-06-10T09:18:16;6.80;;;5.60;;
18378;SDS011;27025;51.986;5.984;2023-06-10T09:20:43;7.75;;;5.47;;
18378;SDS011;27025;51.986;5.984;2023-06-10T09:23:11;6.32;;;5.18;;
18378;SDS011;27025;51.986;5.984;2023-06-10T09:25:38;6.88;;;4.82;;
18378;SDS011;27025;51.986;5.984;2023-06-10T09:28:04;6.38;;;5.45;;
18378;SDS011;27025;51.986;5.984;2023-06-10T09:30:34;5.85;;;4.93;;
18378;SDS011;27025;51.986;5.984;2023-06-10T09:33:01;8.13;;;5.40;;
18378;SDS011;27025;51.986;5.984;2023-06-10T09:35:28;6.93;;;5.20;;
18378;SDS011;27025;51.986;5.984;2023-06-10T09:37:57;9.07;;;5.20;;
18378;SDS011;27025;51.986;5.984;2023-06-10T09:40:23;11.05;;;5.70;;
18378;SDS011;27025;51.986;5.984;2023-06-10T09:42:57;7.85;;;4.88;;
18378;SDS011;27025;51.986;5.984;2023-06-10T09:45:23;9.60;;;6.93;;
18378;SDS011;27025;51.986;5.984;2023-06-10T09:47:53;6.55;;;4.70;;
18378;SDS011;27025;51.986;5.984;2023-06-10T09:50:20;7.63;;;4.80;;
18378;SDS011;27025;51.986;5.984;2023-06-10T09:52:47;10.10;;;5.10;;
18378;SDS011;27025;51.986;5.984;2023-06-10T09:55:13;7.18;;;5.00;;
18378;SDS011;27025;51.986;5.984;2023-06-10T09:57:40;14.55;;;5.40;;
18378;SDS011;27025;51.986;5.984;2023-06-10T10:00:09;7.05;;;5.38;;
18378;SDS011;27025;51.986;5.984;2023-06-10T10:02:53;8.50;;;4.45;;
18378;SDS011;27025;51.986;5.984;2023-06-10T10:05:21;7.60;;;5.22;;
18378;SDS011;27025;51.986;5.984;2023-06-10T10:07:49;8.68;;;4.65;;
18378;SDS011;27025;51.986;5.984;2023-06-10T10:10:17;6.38;;;5.32;;
18378;SDS011;27025;51.986;5.984;2023-06-10T10:12:45;6.07;;;4.90;;
18378;SDS011;27025;51.986;5.984;2023-06-10T10:15:12;7.10;;;5.13;;
18378;SDS011;27025;51.986;5.984;2023-06-10T10:18:14;6.90;;;4.93;;
18378;SDS011;27025;51.986;5.984;2023-06-10T10:20:34;6.55;;;4.65;;
18378;SDS011;27025;51.986;5.984;2023-06-10T10:23:02;6.47;;;4.78;;
18378;SDS011;27025;51.986;5.984;2023-06-10T10:25:34;7.30;;;4.60;;
18378;SDS011;27025;51.986;5.984;2023-06-10T10:30:35;8.43;;;4.80;;
18378;SDS011;27025;51.986;5.984;2023-06-10T10:33:09;5.18;;;4.35;;
18378;SDS011;27025;51.986;5.984;2023-06-10T10:35:36;5.07;;;4.57;;
18378;SDS011;27025;51.986;5.984;2023-06-10T10:38:05;5.38;;;4.20;;
18378;SDS011;27025;51.986;5.984;2023-06-10T10:40:32;5.20;;;4.63;;
18378;SDS011;27025;51.986;5.984;2023-06-10T10:42:58;6.45;;;4.65;;
18378;SDS011;27025;51.986;5.984;2023-06-10T10:45:27;5.50;;;4.35;;
18378;SDS011;27025;51.986;5.984;2023-06-10T10:47:53;5.90;;;4.60;;
18378;SDS011;27025;51.986;5.984;2023-06-10T10:50:22;4.90;;;4.50;;
18378;SDS011;27025;51.986;5.984;2023-06-10T10:52:55;8.93;;;4.43;;
18378;SDS011;27025;51.986;5.984;2023-06-10T10:55:24;4.63;;;4.20;;
18378;SDS011;27025;51.986;5.984;2023-06-10T10:57:57;6.32;;;4.57;;
18378;SDS011;27025;51.986;5.984;2023-06-10T11:00:24;6.57;;;4.75;;
18378;SDS011;27025;51.986;5.984;2023-06-10T11:02:50;7.38;;;4.40;;
18378;SDS011;27025;51.986;5.984;2023-06-10T11:05:30;4.55;;;4.13;;
18378;SDS011;27025;51.986;5.984;2023-06-10T11:07:59;5.10;;;4.60;;
18378;SDS011;27025;51.986;5.984;2023-06-10T11:10:32;9.57;;;4.28;;
18378;SDS011;27025;51.986;5.984;2023-06-10T11:12:59;6.03;;;4.45;;
18378;SDS011;27025;51.986;5.984;2023-06-10T11:15:26;5.40;;;4.47;;
18378;SDS011;27025;51.986;5.984;2023-06-10T11:18:11;5.05;;;4.50;;
18378;SDS011;27025;51.986;5.984;2023-06-10T11:20:41;6.38;;;4.55;;
18378;SDS011;27025;51.986;5.984;2023-06-10T11:23:07;5.53;;;4.10;;
18378;SDS011;27025;51.986;5.984;2023-06-10T11:25:40;6.03;;;4.72;;
18378;SDS011;27025;51.986;5.984;2023-06-10T11:28:39;6.22;;;4.20;;
18378;SDS011;27025;51.986;5.984;2023-06-10T11:30:58;4.95;;;4.53;;
18378;SDS011;27025;51.986;5.984;2023-06-10T11:33:24;7.45;;;4.55;;
18378;SDS011;27025;51.986;5.984;2023-06-10T11:35:50;6.18;;;4.05;;
18378;SDS011;27025;51.986;5.984;2023-06-10T11:38:16;5.25;;;4.63;;
18378;SDS011;27025;51.986;5.984;2023-06-10T11:40:49;7.13;;;4.90;;
18378;SDS011;27025;51.986;5.984;2023-06-10T11:43:19;5.85;;;4.32;;
18378;SDS011;27025;51.986;5.984;2023-06-10T11:45:53;8.82;;;4.40;;
18378;SDS011;27025;51.986;5.984;2023-06-10T11:48:22;4.82;;;4.43;;
18378;SDS011;27025;51.986;5.984;2023-06-10T11:50:48;5.85;;;5.03;;
18378;SDS011;27025;51.986;5.984;2023-06-10T11:53:14;7.13;;;4.55;;
18378;SDS011;27025;51.986;5.984;2023-06-10T11:55:41;5.80;;;4.15;;
18378;SDS011;27025;51.986;5.984;2023-06-10T11:58:14;6.35;;;4.88;;
18378;SDS011;27025;51.986;5.984;2023-06-10T12:00:44;6.20;;;5.07;;
18378;SDS011;27025;51.986;5.984;2023-06-10T12:03:10;5.13;;;4.63;;
18378;SDS011;27025;51.986;5.984;2023-06-10T12:05:36;5.18;;;4.68;;
18378;SDS011;27025;51.986;5.984;2023-06-10T12:08:20;5.40;;;4.60;;
18378;SDS011;27025;51.986;5.984;2023-06-10T12:10:46;5.22;;;4.72;;
18378;SDS011;27025;51.986;5.984;2023-06-10T12:13:12;5.97;;;4.70;;
18378;SDS011;27025;51.986;5.984;2023-06-10T12:15:43;5.65;;;4.70;;
18378;SDS011;27025;51.986;5.984;2023-06-10T12:18:15;6.35;;;4.85;;
18378;SDS011;27025;51.986;5.984;2023-06-10T12:20:42;5.70;;;4.68;;
18378;SDS011;27025;51.986;5.984;2023-06-10T12:23:13;8.68;;;4.75;;
18378;SDS011;27025;51.986;5.984;2023-06-10T12:25:39;7.28;;;4.68;;
18378;SDS011;27025;51.986;5.984;2023-06-10T12:28:09;6.20;;;4.63;;
18378;SDS011;27025;51.986;5.984;2023-06-10T12:30:38;6.63;;;4.80;;
18378;SDS011;27025;51.986;5.984;2023-06-10T12:33:04;5.63;;;4.82;;
18378;SDS011;27025;51.986;5.984;2023-06-10T12:35:46;6.63;;;5.20;;
18378;SDS011;27025;51.986;5.984;2023-06-10T12:38:13;5.22;;;4.72;;
18378;SDS011;27025;51.986;5.984;2023-06-10T12:40:39;5.40;;;4.75;;
18378;SDS011;27025;51.986;5.984;2023-06-10T12:43:08;5.18;;;4.57;;
18378;SDS011;27025;51.986;5.984;2023-06-10T12:45:35;5.45;;;4.95;;
18378;SDS011;27025;51.986;5.984;2023-06-10T12:48:11;5.85;;;4.78;;
18378;SDS011;27025;51.986;5.984;2023-06-10T12:50:50;7.47;;;5.10;;
18378;SDS011;27025;51.986;5.984;2023-06-10T12:53:18;6.63;;;4.88;;
18378;SDS011;27025;51.986;5.984;2023-06-10T12:55:48;7.60;;;5.47;;
18378;SDS011;27025;51.986;5.984;2023-06-10T12:58:14;5.85;;;4.90;;
18378;SDS011;27025;51.986;5.984;2023-06-10T13:00:40;5.70;;;5.20;;
18378;SDS011;27025;51.986;5.984;2023-06-10T13:03:07;6.22;;;4.95;;
18378;SDS011;27025;51.986;5.984;2023-06-10T13:05:34;5.40;;;4.90;;
18378;SDS011;27025;51.986;5.984;2023-06-10T13:08:03;6.25;;;5.00;;
18378;SDS011;27025;51.986;5.984;2023-06-10T13:10:29;6.38;;;4.85;;
18378;SDS011;27025;51.986;5.984;2023-06-10T13:12:55;7.07;;;4.90;;
18378;SDS011;27025;51.986;5.984;2023-06-10T13:15:24;6.50;;;5.10;;
18378;SDS011;27025;51.986;5.984;2023-06-10T13:17:51;8.13;;;5.00;;
18378;SDS011;27025;51.986;5.984;2023-06-10T13:20:18;5.97;;;4.93;;
18378;SDS011;27025;51.986;5.984;2023-06-10T13:22:44;7.18;;;5.22;;
18378;SDS011;27025;51.986;5.984;2023-06-10T13:25:10;8.10;;;5.13;;
18378;SDS011;27025;51.986;5.984;2023-06-10T13:27:37;6.28;;;5.00;;
18378;SDS011;27025;51.986;5.984;2023-06-10T13:30:04;7.97;;;5.20;;
18378;SDS011;27025;51.986;5.984;2023-06-10T13:32:30;8.65;;;5.28;;
18378;SDS011;27025;51.986;5.984;2023-06-10T13:34:56;9.20;;;5.40;;
18378;SDS011;27025;51.986;5.984;2023-06-10T13:37:23;5.85;;;5.25;;
18378;SDS011;27025;51.986;5.984;2023-06-10T13:39:49;5.68;;;5.07;;
18378;SDS011;27025;51.986;5.984;2023-06-10T13:42:18;6.85;;;5.30;;
18378;SDS011;27025;51.986;5.984;2023-06-10T13:44:44;5.43;;;4.93;;
18378;SDS011;27025;51.986;5.984;2023-06-10T13:47:14;7.82;;;5.22;;
18378;SDS011;27025;51.986;5.984;2023-06-10T13:49:41;6.35;;;4.95;;
18378;SDS011;27025;51.986;5.984;2023-06-10T13:52:07;8.75;;;5.05;;
18378;SDS011;27025;51.986;5.984;2023-06-10T13:54:33;8.48;;;5.30;;
18378;SDS011;27025;51.986;5.984;2023-06-10T13:57:02;6.30;;;5.38;;
18378;SDS011;27025;51.986;5.984;2023-06-10T13:59:28;7.72;;;5.50;;
18378;SDS011;27025;51.986;5.984;2023-06-10T14:01:55;6.95;;;5.10;;
18378;SDS011;27025;51.986;5.984;2023-06-10T14:04:24;9.15;;;5.30;;
18378;SDS011;27025;51.986;5.984;2023-06-10T14:06:50;5.47;;;5.00;;
18378;SDS011;27025;51.986;5.984;2023-06-10T14:09:16;5.35;;;4.95;;
18378;SDS011;27025;51.986;5.984;2023-06-10T14:11:45;8.55;;;5.28;;
18378;SDS011;27025;51.986;5.984;2023-06-10T14:14:12;7.47;;;5.03;;
18378;SDS011;27025;51.986;5.984;2023-06-10T14:16:39;6.30;;;5.13;;
18378;SDS011;27025;51.986;5.984;2023-06-10T14:19:07;7.72;;;5.53;;
18378;SDS011;27025;51.986;5.984;2023-06-10T14:21:34;7.00;;;4.97;;
18378;SDS011;27025;51.986;5.984;2023-06-10T14:24:00;6.47;;;5.25;;
18378;SDS011;27025;51.986;5.984;2023-06-10T14:26:34;7.88;;;5.47;;
18378;SDS011;27025;51.986;5.984;2023-06-10T14:29:00;6.03;;;5.43;;
18378;SDS011;27025;51.986;5.984;2023-06-10T14:31:27;6.82;;;5.32;;
18378;SDS011;27025;51.986;5.984;2023-06-10T14:33:53;6.47;;;5.30;;
18378;SDS011;27025;51.986;5.984;2023-06-10T14:36:19;5.80;;;5.20;;
18378;SDS011;27025;51.986;5.984;2023-06-10T14:38:45;5.75;;;5.25;;
18378;SDS011;27025;51.986;5.984;2023-06-10T14:41:14;6.60;;;5.30;;
18378;SDS011;27025;51.986;5.984;2023-06-10T14:43:40;5.82;;;5.32;;
18378;SDS011;27025;51.986;5.984;2023-06-10T14:46:06;5.85;;;5.05;;
18378;SDS011;27025;51.986;5.984;2023-06-10T14:48:35;7.40;;;5.32;;
18378;SDS011;27025;51.986;5.984;2023-06-10T14:51:01;6.90;;;5.35;;
18378;SDS011;27025;51.986;5.984;2023-06-10T14:53:27;6.95;;;5.20;;
18378;SDS011;27025;51.986;5.984;2023-06-10T14:56:01;6.55;;;5.00;;